createdAt,value
2019-02-14T00:00:48.146Z,64.73
2019-02-14T00:03:14.997Z,63.70
2019-02-14T00:05:41.764Z,68.27
2019-02-14T00:08:08.593Z,64.03
2019-02-14T00:10:35.430Z,55.43
2019-02-14T00:13:02.161Z,65.97
2019-02-14T00:15:28.866Z,59.07
2019-02-14T00:17:55.636Z,61.40
2019-02-14T00:20:22.387Z,55.87
2019-02-14T00:22:49.229Z,62.07
2019-02-14T00:25:15.960Z,60.23
2019-02-14T00:27:42.711Z,65.10
2019-02-14T00:30:09.449Z,57.77
2019-02-14T00:32:36.289Z,63.40
2019-02-14T00:35:03.130Z,62.37
2019-02-14T00:37:29.871Z,64.07
2019-02-14T00:39:56.702Z,63.90
2019-02-14T00:42:23.455Z,53.57
2019-02-14T00:44:50.178Z,58.27
2019-02-14T00:47:16.930Z,54.90
2019-02-14T00:49:43.661Z,59.60
2019-02-14T00:52:10.508Z,62.57
2019-02-14T00:54:37.239Z,57.03
2019-02-14T00:57:03.992Z,59.90
2019-02-14T00:59:30.730Z,66.10
2019-02-14T01:01:57.572Z,55.90
2019-02-14T01:04:24.437Z,58.00
2019-02-14T01:06:51.248Z,51.43
2019-02-14T01:09:17.993Z,61.63
2019-02-14T01:11:44.834Z,53.20
2019-02-14T01:14:11.575Z,59.10
2019-02-14T01:16:38.415Z,51.37
2019-02-14T01:19:05.188Z,63.00
2019-02-14T01:21:31.895Z,61.93
2019-02-14T01:23:58.598Z,56.10
2019-02-14T01:26:25.379Z,56.97
2019-02-14T01:28:52.212Z,57.73
2019-02-14T01:31:18.945Z,56.77
2019-02-14T01:33:45.645Z,62.73
2019-02-14T01:36:12.423Z,56.27
2019-02-14T01:38:39.170Z,60.50
2019-02-14T01:41:06.004Z,53.60
2019-02-14T01:43:32.749Z,57.37
2019-02-14T01:45:59.595Z,58.30
2019-02-14T01:48:26.323Z,66.60
2019-02-14T01:50:52.962Z,55.60
2019-02-14T01:53:19.816Z,58.27
2019-02-14T01:55:46.541Z,58.37
2019-02-14T01:58:13.290Z,56.03
2019-02-14T02:00:40.132Z,59.83
2019-02-14T02:03:07.071Z,56.57
2019-02-14T02:05:33.920Z,52.73
2019-02-14T02:08:00.645Z,53.90
2019-02-14T02:10:27.308Z,53.80
2019-02-14T02:12:54.135Z,47.80
2019-02-14T02:15:20.875Z,54.77
2019-02-14T02:17:48.252Z,60.47
2019-02-14T02:20:15.252Z,51.20
2019-02-14T02:22:42.212Z,44.80
2019-02-14T02:25:09.138Z,49.10
2019-02-14T02:27:36.004Z,53.43
2019-02-14T02:30:02.839Z,45.43
2019-02-14T02:32:29.575Z,59.93
2019-02-14T02:34:56.331Z,48.83
2019-02-14T02:37:23.177Z,62.50
2019-02-14T02:39:49.895Z,46.00
2019-02-14T02:42:16.650Z,48.03
2019-02-14T02:44:43.373Z,58.07
2019-02-14T02:47:10.115Z,54.67
2019-02-14T02:49:36.851Z,57.30
2019-02-14T02:52:03.596Z,57.23
2019-02-14T02:54:30.646Z,57.90
2019-02-14T02:56:57.391Z,57.87
2019-02-14T02:59:24.179Z,50.00
2019-02-14T03:01:50.961Z,43.07
2019-02-14T03:04:17.709Z,47.60
2019-02-14T03:06:44.551Z,48.27
2019-02-14T03:09:11.287Z,53.87
2019-02-14T03:11:38.034Z,54.13
2019-02-14T03:14:04.872Z,48.87
2019-02-14T03:16:31.611Z,49.40
2019-02-14T03:18:58.453Z,55.37
2019-02-14T03:21:25.192Z,51.23
2019-02-14T03:23:51.932Z,49.30
2019-02-14T03:26:18.670Z,52.80
2019-02-14T03:28:45.369Z,47.93
2019-02-14T03:31:12.151Z,44.97
2019-02-14T03:33:38.878Z,49.67
2019-02-14T03:36:05.626Z,43.97
2019-02-14T03:38:32.367Z,51.53
2019-02-14T03:40:59.603Z,48.23
2019-02-14T03:43:26.449Z,45.57
2019-02-14T03:45:53.200Z,47.37
2019-02-14T03:48:19.927Z,60.20
2019-02-14T03:50:46.779Z,50.20
2019-02-14T03:53:13.624Z,43.90
2019-02-14T03:55:40.462Z,50.03
2019-02-14T03:58:07.205Z,54.77
2019-02-14T04:00:33.935Z,48.80
2019-02-14T04:03:00.833Z,52.40
2019-02-14T04:05:27.617Z,49.27
2019-02-14T04:07:54.473Z,47.60
2019-02-14T04:10:21.405Z,53.67
2019-02-14T04:12:48.153Z,41.67
2019-02-14T04:15:14.994Z,50.90
2019-02-14T04:17:41.927Z,48.40
2019-02-14T04:20:08.722Z,46.77
2019-02-14T04:22:35.507Z,49.47
2019-02-14T04:25:02.243Z,49.70
2019-02-14T04:27:28.891Z,48.20
2019-02-14T04:29:55.727Z,51.67
2019-02-14T04:32:22.985Z,63.70
2019-02-14T04:34:49.827Z,52.43
2019-02-14T04:37:16.555Z,56.43
2019-02-14T04:39:43.313Z,53.40
2019-02-14T04:42:10.038Z,51.10
2019-02-14T04:44:36.884Z,54.67
2019-02-14T04:47:03.728Z,50.03
2019-02-14T04:49:30.470Z,55.07
2019-02-14T04:51:57.196Z,41.47
2019-02-14T04:54:23.957Z,48.57
2019-02-14T04:56:50.776Z,47.80
2019-02-14T04:59:17.412Z,52.87
2019-02-14T05:01:44.065Z,46.80
2019-02-14T05:04:10.903Z,52.27
2019-02-14T05:06:44.225Z,52.83
2019-02-14T05:09:06.171Z,50.90
2019-02-14T05:11:32.970Z,47.87
2019-02-14T05:13:59.806Z,56.20
2019-02-14T05:16:26.648Z,57.77
2019-02-14T05:18:53.592Z,56.87
2019-02-14T05:21:20.325Z,51.50
2019-02-14T05:23:47.178Z,49.03
2019-02-14T05:26:13.912Z,61.80
2019-02-14T05:28:40.760Z,58.07
2019-02-14T05:31:07.590Z,58.07
2019-02-14T05:33:34.359Z,64.63
2019-02-14T05:36:01.064Z,70.83
2019-02-14T05:38:27.805Z,56.50
2019-02-14T05:40:54.543Z,52.03
2019-02-14T05:43:21.284Z,60.63
2019-02-14T05:45:48.337Z,46.53
2019-02-14T05:48:15.079Z,52.50
2019-02-14T05:50:41.919Z,54.93
2019-02-14T05:53:08.712Z,46.87
2019-02-14T05:55:35.509Z,49.10
2019-02-14T05:58:02.241Z,47.27
2019-02-14T06:00:29.070Z,53.30
2019-02-14T06:02:55.709Z,49.50
2019-02-14T06:05:22.482Z,44.97
2019-02-14T06:07:49.303Z,45.10
2019-02-14T06:10:15.990Z,49.93
2019-02-14T06:12:42.678Z,46.53
2019-02-14T06:15:09.609Z,51.07
2019-02-14T06:17:36.563Z,48.23
2019-02-14T06:20:03.301Z,44.70
2019-02-14T06:22:30.143Z,56.40
2019-02-14T06:24:56.874Z,52.40
2019-02-14T06:27:23.624Z,52.23
2019-02-14T06:29:50.383Z,50.63
2019-02-14T06:32:17.090Z,60.33
2019-02-14T06:34:43.728Z,55.70
2019-02-14T06:37:10.581Z,57.77
2019-02-14T06:39:37.428Z,56.50
2019-02-14T06:42:04.200Z,53.67
2019-02-14T06:44:30.991Z,58.63
2019-02-14T06:46:57.634Z,51.40
2019-02-14T06:49:24.379Z,55.13
2019-02-14T06:51:51.223Z,47.50
2019-02-14T06:54:17.953Z,57.03
2019-02-14T06:56:44.689Z,51.90
2019-02-14T06:59:11.542Z,53.80
2019-02-14T07:01:38.389Z,54.83
2019-02-14T07:04:05.329Z,52.03
2019-02-14T07:06:32.059Z,51.00
2019-02-14T07:08:58.799Z,51.10
2019-02-14T07:11:25.544Z,52.00
2019-02-14T07:13:52.277Z,52.07
2019-02-14T07:16:19.014Z,63.10
2019-02-14T07:18:45.650Z,48.00
2019-02-14T07:21:12.388Z,65.03
2019-02-14T07:23:39.026Z,49.90
2019-02-14T07:26:05.771Z,53.80
2019-02-14T07:28:32.403Z,55.93
2019-02-14T07:30:59.141Z,45.67
2019-02-14T07:33:25.778Z,51.37
2019-02-14T07:35:52.631Z,58.47
2019-02-14T07:38:19.464Z,50.13
2019-02-14T07:40:46.201Z,42.63
2019-02-14T07:43:12.906Z,49.53
2019-02-14T07:45:41.271Z,41.87
2019-02-14T07:48:08.057Z,50.60
2019-02-14T07:50:34.906Z,54.83
2019-02-14T07:53:01.753Z,46.17
2019-02-14T07:55:28.489Z,55.03
2019-02-14T07:57:55.217Z,47.27
2019-02-14T08:00:21.970Z,51.83
2019-02-14T08:02:48.706Z,45.30
2019-02-14T08:05:15.404Z,50.47
2019-02-14T08:07:42.189Z,47.73
2019-02-14T08:10:08.927Z,49.20
2019-02-14T08:12:35.654Z,46.93
2019-02-14T08:15:02.418Z,42.70
2019-02-14T08:17:29.131Z,45.63
2019-02-14T08:19:55.877Z,43.93
2019-02-14T08:22:22.623Z,51.70
2019-02-14T08:24:49.368Z,43.30
2019-02-14T08:27:16.202Z,49.67
2019-02-14T08:29:43.045Z,42.93
2019-02-14T08:32:09.785Z,39.53
2019-02-14T08:34:36.523Z,44.50
2019-02-14T08:37:03.262Z,43.03
2019-02-14T08:39:30.003Z,45.23
2019-02-14T08:41:56.739Z,45.60
2019-02-14T08:44:23.474Z,46.60
2019-02-14T08:46:50.220Z,40.63
2019-02-14T08:49:16.950Z,41.70
2019-02-14T08:51:43.688Z,39.40
2019-02-14T08:54:10.331Z,33.50
2019-02-14T08:56:37.075Z,37.43
2019-02-14T08:59:03.819Z,38.57
2019-02-14T09:01:30.549Z,43.03
2019-02-14T09:03:57.295Z,42.87
2019-02-14T09:06:24.137Z,54.77
2019-02-14T09:08:50.976Z,37.33
2019-02-14T09:11:17.816Z,39.47
2019-02-14T09:13:44.517Z,36.07
2019-02-14T09:16:11.298Z,36.60
2019-02-14T09:18:38.035Z,39.13
2019-02-14T09:21:04.769Z,36.40
2019-02-14T09:23:31.505Z,36.57
2019-02-14T09:25:58.254Z,36.87
2019-02-14T09:28:24.960Z,46.30
2019-02-14T09:30:51.731Z,33.50
2019-02-14T09:33:18.464Z,36.70
2019-02-14T09:35:45.218Z,33.50
2019-02-14T09:38:11.948Z,33.57
2019-02-14T09:40:38.690Z,35.83
2019-02-14T09:43:05.559Z,33.97
2019-02-14T09:45:32.678Z,29.07
2019-02-14T09:47:59.694Z,32.47
2019-02-14T09:50:26.483Z,32.20
2019-02-14T09:52:53.381Z,47.43
2019-02-14T09:55:20.150Z,33.00
2019-02-14T09:57:46.892Z,30.23
2019-02-14T10:00:13.731Z,33.50
2019-02-14T10:02:40.432Z,33.83
2019-02-14T10:05:07.116Z,29.23
2019-02-14T10:07:33.948Z,32.97
2019-02-14T10:10:00.789Z,31.03
2019-02-14T10:12:27.628Z,32.60
2019-02-14T10:14:54.319Z,30.33
2019-02-14T10:17:22.438Z,27.97
2019-02-14T10:19:49.238Z,28.73
2019-02-14T10:25:01.437Z,30.07
2019-02-14T10:27:28.138Z,33.60
2019-02-14T10:29:54.975Z,32.17
2019-02-14T10:32:21.707Z,35.87
2019-02-14T10:34:48.345Z,35.50
2019-02-14T10:37:15.291Z,36.37
2019-02-14T10:39:42.040Z,36.97
2019-02-14T10:42:08.907Z,33.30
2019-02-14T10:44:35.824Z,33.67
2019-02-14T10:47:02.555Z,32.77
2019-02-14T10:49:29.300Z,32.33
2019-02-14T10:51:56.042Z,30.13
2019-02-14T10:54:22.774Z,33.50
2019-02-14T10:56:49.517Z,24.73
2019-02-14T10:59:16.363Z,30.97
2019-02-14T11:01:43.202Z,29.60
2019-02-14T11:04:10.248Z,30.65
2019-02-14T11:06:36.991Z,30.80
2019-02-14T11:09:03.922Z,31.77
2019-02-14T11:11:30.673Z,31.00
2019-02-14T11:13:57.508Z,35.88
2019-02-14T11:16:24.453Z,44.13
2019-02-14T11:18:51.189Z,34.65
2019-02-14T11:21:18.149Z,35.93
2019-02-14T11:23:44.996Z,36.97
2019-02-14T11:26:11.823Z,38.97
2019-02-14T11:28:38.563Z,43.07
2019-02-14T11:31:05.268Z,37.97
2019-02-14T11:33:32.041Z,41.03
2019-02-14T11:35:58.770Z,38.47
2019-02-14T11:38:25.511Z,42.83
2019-02-14T11:40:52.251Z,35.03
2019-02-14T11:43:18.998Z,41.57
2019-02-14T11:45:45.839Z,34.53
2019-02-14T11:48:12.570Z,36.67
2019-02-14T11:50:39.533Z,38.30
2019-02-14T11:53:14.043Z,32.53
2019-02-14T11:55:34.759Z,37.37
2019-02-14T11:58:01.588Z,36.93
2019-02-14T12:00:28.519Z,43.80
2019-02-14T12:02:56.314Z,38.37
2019-02-14T12:05:23.434Z,38.83
2019-02-14T12:07:50.190Z,36.03
2019-02-14T12:10:17.031Z,42.17
2019-02-14T12:12:43.761Z,37.37
2019-02-14T12:15:10.602Z,44.80
2019-02-14T12:17:37.347Z,35.83
2019-02-14T12:20:04.084Z,40.60
2019-02-14T12:22:30.810Z,38.70
2019-02-14T12:24:57.549Z,31.37
2019-02-14T12:27:24.309Z,38.50
2019-02-14T12:29:51.027Z,34.40
2019-02-14T12:32:17.776Z,31.63
2019-02-14T12:34:44.520Z,39.03
2019-02-14T12:37:11.247Z,37.80
2019-02-14T12:39:38.089Z,33.40
2019-02-14T12:42:04.815Z,37.47
2019-02-14T12:44:31.580Z,35.70
2019-02-14T12:46:58.311Z,35.20
2019-02-14T12:49:25.352Z,41.27
2019-02-14T12:51:52.315Z,26.67
2019-02-14T12:54:19.049Z,39.37
2019-02-14T12:56:45.794Z,32.27
2019-02-14T12:59:12.543Z,32.73
2019-02-14T13:01:39.262Z,36.20
2019-02-14T13:04:06.075Z,30.60
2019-02-14T13:06:32.845Z,34.33
2019-02-14T13:08:59.688Z,36.30
2019-02-14T13:11:26.531Z,33.73
2019-02-14T13:13:53.378Z,40.47
2019-02-14T13:16:20.199Z,43.93
2019-02-14T13:18:46.942Z,35.93
2019-02-14T13:21:13.695Z,34.67
2019-02-14T13:23:40.419Z,45.50
2019-02-14T13:26:07.158Z,39.20
2019-02-14T13:28:33.998Z,43.53
2019-02-14T13:31:00.774Z,37.50
2019-02-14T13:33:27.594Z,45.40
2019-02-14T13:35:54.478Z,36.80
2019-02-14T13:38:21.167Z,41.33
2019-02-14T13:40:48.012Z,38.33
2019-02-14T13:43:14.743Z,51.37
2019-02-14T13:45:41.489Z,47.57
2019-02-14T13:48:08.348Z,40.43
2019-02-14T13:50:35.076Z,38.97
2019-02-14T13:53:02.036Z,35.50
2019-02-14T13:55:28.857Z,44.30
2019-02-14T13:57:55.590Z,50.10
2019-02-14T14:00:22.359Z,47.83
2019-02-14T14:02:49.088Z,45.20
2019-02-14T14:05:16.022Z,43.03
2019-02-14T14:07:42.862Z,32.47
2019-02-14T14:10:09.599Z,33.70
2019-02-14T14:12:36.440Z,37.87
2019-02-14T14:15:03.181Z,37.67
2019-02-14T14:17:30.060Z,34.13
2019-02-14T14:19:56.862Z,38.83
2019-02-14T14:22:23.591Z,32.77
2019-02-14T14:24:50.333Z,29.30
2019-02-14T14:27:17.089Z,47.20
2019-02-14T14:29:44.015Z,37.43
2019-02-14T14:32:10.651Z,36.17
2019-02-14T14:34:37.289Z,47.17
2019-02-14T14:37:04.039Z,39.03
2019-02-14T14:39:30.882Z,44.40
2019-02-14T14:41:57.723Z,36.40
2019-02-14T14:44:24.960Z,42.47
2019-02-14T14:46:51.712Z,40.43
2019-02-14T14:49:18.553Z,37.50
2019-02-14T14:51:45.261Z,50.33
2019-02-14T14:54:12.035Z,45.53
2019-02-14T14:56:38.976Z,59.50
2019-02-14T14:59:05.763Z,55.17
2019-02-14T15:01:32.917Z,41.77
2019-02-14T15:03:59.760Z,34.87
2019-02-14T15:06:26.548Z,43.73
2019-02-14T15:08:53.278Z,50.10
2019-02-14T15:11:19.923Z,47.43
2019-02-14T15:13:46.767Z,45.97
2019-02-14T15:16:13.712Z,44.83
2019-02-14T15:18:40.544Z,51.87
2019-02-14T15:21:07.280Z,59.00
2019-02-14T15:23:34.032Z,53.23
2019-02-14T15:26:00.881Z,66.77
2019-02-14T15:28:27.612Z,69.57
2019-02-14T15:30:54.403Z,55.80
2019-02-14T15:33:21.186Z,54.53
2019-02-14T15:35:48.039Z,51.03
2019-02-14T15:38:14.775Z,56.60
2019-02-14T15:40:41.516Z,60.90
2019-02-14T15:43:08.355Z,60.53
2019-02-14T15:45:35.090Z,67.73
2019-02-14T15:48:01.821Z,58.47
2019-02-14T15:50:29.910Z,64.50
2019-02-14T15:52:57.057Z,64.87
2019-02-14T15:55:24.293Z,65.67
2019-02-14T15:57:51.217Z,60.47
2019-02-14T16:00:18.021Z,72.50
2019-02-14T16:02:44.931Z,77.30
2019-02-14T16:05:11.685Z,79.33
2019-02-14T16:07:39.507Z,64.93
2019-02-14T16:10:06.980Z,68.73
2019-02-14T16:12:33.735Z,78.50
2019-02-14T16:15:00.457Z,74.43
2019-02-14T16:17:27.198Z,90.47
2019-02-14T16:19:55.514Z,61.07
2019-02-14T16:22:29.862Z,62.77
2019-02-14T16:24:50.770Z,80.40
2019-02-14T16:27:17.552Z,71.73
2019-02-14T16:29:44.302Z,78.13
2019-02-14T16:32:11.124Z,84.47
2019-02-14T16:34:38.064Z,88.17
2019-02-14T16:37:04.816Z,86.87
2019-02-14T16:39:31.511Z,83.93
2019-02-14T16:41:58.175Z,76.10
2019-02-14T16:44:25.324Z,69.57
2019-02-14T16:46:52.076Z,74.97
2019-02-14T16:49:18.807Z,88.17
2019-02-14T16:51:45.548Z,83.47
2019-02-14T16:54:12.297Z,114.83
2019-02-14T16:56:39.134Z,88.00
2019-02-14T16:59:05.908Z,101.47
2019-02-14T17:01:34.762Z,84.70
2019-02-14T17:04:01.596Z,100.57
2019-02-14T17:06:28.339Z,99.27
2019-02-14T17:08:55.185Z,98.47
2019-02-14T17:11:22.013Z,94.07
2019-02-14T17:13:48.974Z,96.97
2019-02-14T17:16:15.826Z,118.77
2019-02-14T17:18:42.709Z,98.53
2019-02-14T17:21:09.514Z,90.27
2019-02-14T17:23:36.337Z,98.77
2019-02-14T17:26:03.193Z,91.03
2019-02-14T17:28:30.029Z,97.60
2019-02-14T17:30:56.754Z,85.77
2019-02-14T17:33:23.596Z,109.80
2019-02-14T17:35:50.355Z,95.90
2019-02-14T17:38:17.196Z,100.10
2019-02-14T17:40:45.976Z,104.80
2019-02-14T17:43:12.397Z,113.00
2019-02-14T17:45:39.233Z,103.37
2019-02-14T17:48:06.289Z,101.70
2019-02-14T17:50:33.034Z,103.47
2019-02-14T17:52:59.770Z,90.63
2019-02-14T17:55:26.711Z,87.63
2019-02-14T17:57:53.511Z,83.07
2019-02-14T18:00:20.912Z,98.03
2019-02-14T18:02:47.619Z,86.83
2019-02-14T18:05:14.491Z,85.73
2019-02-14T18:07:41.331Z,79.77
2019-02-14T18:10:08.167Z,95.37
2019-02-14T18:12:35.103Z,92.10
2019-02-14T18:15:02.010Z,87.87
2019-02-14T18:17:28.789Z,85.43
2019-02-14T18:19:55.875Z,85.73
2019-02-14T18:22:22.681Z,85.07
2019-02-14T18:24:49.545Z,84.43
2019-02-14T18:27:16.465Z,83.83
2019-02-14T18:29:43.471Z,89.53
2019-02-14T18:32:10.167Z,86.27
2019-02-14T18:34:36.995Z,86.93
2019-02-14T18:37:03.843Z,87.77
2019-02-14T18:39:31.708Z,99.80
2019-02-14T18:41:58.595Z,79.83
2019-02-14T18:44:25.350Z,93.30
2019-02-14T18:46:52.144Z,84.20
2019-02-14T18:49:19.307Z,80.00
2019-02-14T18:51:46.188Z,95.83
2019-02-14T18:54:12.963Z,90.83
2019-02-14T18:56:39.796Z,74.47
2019-02-14T18:59:06.652Z,109.40
2019-02-14T19:01:33.372Z,78.13
2019-02-14T19:04:00.114Z,94.40
2019-02-14T19:06:26.869Z,101.87
2019-02-14T19:08:53.797Z,117.10
2019-02-14T19:11:20.854Z,89.37
2019-02-14T19:13:47.797Z,82.10
2019-02-14T19:16:14.535Z,80.10
2019-02-14T19:18:41.380Z,84.63
2019-02-14T19:21:08.220Z,77.10
2019-02-14T19:23:35.060Z,99.30
2019-02-14T19:26:01.796Z,74.10
2019-02-14T19:28:28.731Z,83.57
2019-02-14T19:30:55.470Z,102.37
2019-02-14T19:33:22.222Z,98.97
2019-02-14T19:35:49.002Z,80.10
2019-02-14T19:38:15.800Z,81.80
2019-02-14T19:40:42.531Z,81.10
2019-02-14T19:43:09.291Z,82.80
2019-02-14T19:45:36.908Z,102.67
2019-02-14T19:48:03.979Z,104.73
2019-02-14T19:50:30.682Z,101.57
2019-02-14T19:52:57.472Z,74.57
2019-02-14T19:55:24.372Z,89.63
2019-02-14T19:57:51.147Z,94.77
2019-02-14T20:00:18.003Z,112.17
2019-02-14T20:02:44.931Z,83.63
2019-02-14T20:05:11.680Z,92.97
2019-02-14T20:07:38.409Z,98.57
2019-02-14T20:10:05.143Z,90.17
2019-02-14T20:12:31.903Z,96.37
2019-02-14T20:14:58.739Z,103.37
2019-02-14T20:17:25.466Z,105.27
2019-02-14T20:19:52.218Z,104.30
2019-02-14T20:22:18.960Z,92.30
2019-02-14T20:24:45.792Z,90.83
2019-02-14T20:27:12.628Z,89.50
2019-02-14T20:29:39.479Z,96.80
2019-02-14T20:32:06.219Z,103.33
2019-02-14T20:34:33.241Z,109.67
2019-02-14T20:37:00.109Z,107.10
2019-02-14T20:39:26.847Z,91.40
2019-02-14T20:41:53.794Z,91.27
2019-02-14T20:44:20.632Z,106.17
2019-02-14T20:46:47.386Z,98.17
2019-02-14T20:49:14.209Z,91.90
2019-02-14T20:51:40.945Z,94.13
2019-02-14T20:54:07.690Z,90.10
2019-02-14T20:56:34.535Z,89.90
2019-02-14T20:59:01.275Z,96.53
2019-02-14T21:01:28.120Z,94.03
2019-02-14T21:03:54.840Z,92.73
2019-02-14T21:06:21.482Z,80.87
2019-02-14T21:08:48.228Z,86.97
2019-02-14T21:11:15.071Z,86.43
2019-02-14T21:13:41.915Z,89.37
2019-02-14T21:16:08.643Z,84.43
2019-02-14T21:18:35.386Z,87.07
2019-02-14T21:21:02.130Z,81.23
2019-02-14T21:23:28.864Z,85.97
2019-02-14T21:25:55.715Z,84.70
2019-02-14T21:28:22.449Z,96.53
2019-02-14T21:30:49.393Z,92.43
2019-02-14T21:33:16.134Z,88.50
2019-02-14T21:35:42.866Z,87.07
2019-02-14T21:38:09.731Z,71.83
2019-02-14T21:40:36.450Z,75.27
2019-02-14T21:43:03.270Z,87.30
2019-02-14T21:45:30.263Z,100.07
2019-02-14T21:47:57.105Z,84.83
2019-02-14T21:50:23.919Z,112.70
2019-02-14T21:52:50.654Z,86.87
2019-02-14T21:55:18.144Z,91.27
2019-02-14T21:57:45.378Z,109.53
2019-02-14T22:00:12.222Z,113.53
2019-02-14T22:02:39.072Z,76.67
2019-02-14T22:05:05.966Z,95.63
2019-02-14T22:07:34.916Z,89.03
2019-02-14T22:10:01.457Z,85.23
2019-02-14T22:12:39.772Z,98.47
2019-02-14T22:14:58.237Z,82.67
2019-02-14T22:17:25.182Z,82.40
2019-02-14T22:19:52.024Z,95.67
2019-02-14T22:22:18.808Z,91.20
2019-02-14T22:24:45.549Z,99.37
2019-02-14T22:27:12.375Z,93.70
2019-02-14T22:29:39.101Z,96.87
2019-02-14T22:32:06.058Z,82.60
2019-02-14T22:34:33.001Z,76.10
2019-02-14T22:36:59.845Z,85.60
2019-02-14T22:39:26.692Z,78.63
2019-02-14T22:41:53.638Z,79.93
2019-02-14T22:44:20.483Z,70.47
2019-02-14T22:46:47.222Z,72.53
2019-02-14T22:49:14.061Z,73.47
2019-02-14T22:51:40.904Z,74.50
2019-02-14T22:54:07.872Z,74.50
2019-02-14T22:56:34.689Z,70.37
2019-02-14T22:59:01.418Z,69.37
2019-02-14T23:01:28.158Z,68.53
2019-02-14T23:03:55.006Z,71.13
2019-02-14T23:06:22.012Z,73.77
2019-02-14T23:08:48.796Z,64.00
2019-02-14T23:11:15.530Z,59.00
2019-02-14T23:13:42.376Z,60.00
2019-02-14T23:16:09.616Z,71.30
2019-02-14T23:18:36.364Z,67.53
2019-02-14T23:21:03.062Z,68.63
2019-02-14T23:23:29.741Z,66.20
2019-02-14T23:25:56.678Z,62.37
2019-02-14T23:28:23.528Z,61.67
2019-02-14T23:30:50.259Z,65.30
2019-02-14T23:33:17.234Z,62.47
2019-02-14T23:35:44.050Z,67.60
2019-02-14T23:38:10.782Z,70.83
2019-02-14T23:40:37.531Z,71.17
2019-02-14T23:43:05.028Z,65.87
2019-02-14T23:45:31.920Z,66.90
2019-02-14T23:47:58.662Z,64.37
2019-02-14T23:50:25.410Z,68.70
2019-02-14T23:52:52.854Z,62.03
2019-02-14T23:55:19.603Z,63.20
2019-02-14T23:57:46.333Z,65.83
